Time;durP1;ratioP1;P1;durP2;ratioP2;P2;SDS_P1;SDS_P2;PMS_P1;PMS_P2;Temp;Humidity;BMP_temperature;BMP_pressure;BME280_temperature;BME280_humidity;BME280_pressure;Samples;Min_cycle;Max_cycle;Signal;HPM_P1;HPM_P2
2022/07/17 00:01:34;;;;;;;6.55;2.50;;;16.20;61.80;;;;;;2345421;57;21046;-74
2022/07/17 00:04:02;;;;;;;5.53;2.25;;;16.20;62.00;;;;;;2345802;57;21100;-73
2022/07/17 00:06:29;;;;;;;6.60;1.98;;;16.10;62.30;;;;;;2345186;57;21104;-76
2022/07/17 00:08:57;;;;;;;10.13;2.50;;;16.10;62.40;;;;;;2346059;57;21112;-75
2022/07/17 00:11:25;;;;;;;8.68;2.25;;;16.10;62.50;;;;;;2346048;57;21041;-75
2022/07/17 00:13:53;;;;;;;7.32;2.62;;;16.10;62.60;;;;;;2593009;53;21049;-73
2022/07/17 00:16:20;;;;;;;8.70;2.55;;;16.10;62.70;;;;;;2345413;57;21105;-76
2022/07/17 00:18:48;;;;;;;6.18;1.92;;;16.10;62.70;;;;;;2344928;57;21050;-76
2022/07/17 00:21:15;;;;;;;4.72;2.00;;;16.00;62.70;;;;;;2345806;57;21616;-74
2022/07/17 00:23:43;;;;;;;8.73;2.28;;;16.00;62.90;;;;;;2593445;53;21125;-75
2022/07/17 00:26:10;;;;;;;6.93;2.17;;;16.00;63.90;;;;;;2345732;57;21034;-76
2022/07/17 00:28:38;;;;;;;7.57;2.47;;;16.00;63.20;;;;;;2592861;53;21617;-75
2022/07/17 00:31:05;;;;;;;6.82;3.33;;;16.00;63.90;;;;;;2345282;57;21136;-72
2022/07/17 00:33:33;;;;;;;10.02;4.65;;;15.90;63.10;;;;;;2344415;57;21544;-75
2022/07/17 00:36:01;;;;;;;9.75;5.65;;;15.90;63.10;;;;;;2344402;57;21069;-75
2022/07/17 00:38:28;;;;;;;11.43;5.03;;;15.90;63.20;;;;;;2345136;57;21045;-74
2022/07/17 00:40:57;;;;;;;8.27;3.45;;;15.90;63.30;;;;;;2344520;57;21136;-75
2022/07/17 00:43:25;;;;;;;11.35;2.70;;;15.90;63.30;;;;;;2344820;57;21599;-75
2022/07/17 00:45:57;;;;;;;6.95;2.53;;;15.80;63.60;;;;;;2344383;57;21096;-76
2022/07/17 00:48:25;;;;;;;4.05;2.30;;;15.80;63.90;;;;;;2344716;57;21673;-72
2022/07/17 00:50:53;;;;;;;9.18;3.00;;;15.80;64.10;;;;;;2345314;57;21053;-75
2022/07/17 00:53:21;;;;;;;7.03;2.37;;;15.80;64.10;;;;;;2345315;57;21117;-75
2022/07/17 00:58:27;;;;;;;6.95;2.42;;;15.80;64.50;;;;;;2354202;57;22066;-72
2022/07/17 01:00:56;;;;;;;7.57;2.65;;;15.80;64.50;;;;;;2609480;52;21067;-75
2022/07/17 01:03:25;;;;;;;8.48;2.35;;;15.80;64.50;;;;;;2373615;56;21116;-75
2022/07/17 01:05:53;;;;;;;9.07;2.30;;;15.70;64.40;;;;;;2372571;56;21047;-75
2022/07/17 01:08:20;;;;;;;7.60;2.35;;;15.80;64.60;;;;;;2373367;56;21560;-73
2022/07/17 01:10:48;;;;;;;8.25;2.30;;;15.80;64.70;;;;;;2373088;56;21154;-76
2022/07/17 01:13:15;;;;;;;3.97;2.00;;;15.80;64.90;;;;;;2372419;56;21558;-75
2022/07/17 01:15:44;;;;;;;3.55;2.08;;;15.80;65.10;;;;;;2372669;56;21054;-75
2022/07/17 01:18:13;;;;;;;4.70;1.83;;;15.80;65.20;;;;;;2373091;56;21062;-75
2022/07/17 01:20:42;;;;;;;8.68;2.45;;;15.80;65.10;;;;;;2372552;56;22779;-75
2022/07/17 01:23:10;;;;;;;6.32;2.30;;;15.80;65.10;;;;;;2373390;56;21062;-75
2022/07/17 01:25:38;;;;;;;8.30;2.72;;;15.90;65.00;;;;;;2372591;56;21162;-75
2022/07/17 01:28:06;;;;;;;7.37;2.40;;;15.90;65.20;;;;;;2372859;56;21122;-73
2022/07/17 01:30:35;;;;;;;5.05;2.50;;;15.90;65.20;;;;;;2373224;56;21048;-73
2022/07/17 01:33:03;;;;;;;8.98;2.67;;;15.90;65.30;;;;;;2627049;52;21038;-75
2022/07/17 01:35:30;;;;;;;17.30;2.60;;;15.90;65.30;;;;;;2372957;56;21565;-76
2022/07/17 01:37:58;;;;;;;4.90;2.17;;;15.80;65.30;;;;;;2373388;56;21039;-76
2022/07/17 01:40:25;;;;;;;7.00;2.60;;;15.80;65.30;;;;;;2373877;56;21039;-74
2022/07/17 01:42:52;;;;;;;10.07;4.25;;;15.90;65.30;;;;;;2373375;56;21136;-73
2022/07/17 01:45:20;;;;;;;6.25;2.42;;;15.90;65.40;;;;;;2372829;56;21066;-75
2022/07/17 01:47:48;;;;;;;6.22;2.20;;;15.90;65.40;;;;;;2373725;56;21043;-72
2022/07/17 01:50:16;;;;;;;8.57;2.40;;;15.90;65.50;;;;;;2372799;56;21221;-75
2022/07/17 01:52:45;;;;;;;8.18;2.30;;;15.90;65.60;;;;;;2373317;56;21043;-74
2022/07/17 01:55:14;;;;;;;3.47;2.30;;;15.90;65.60;;;;;;2373413;56;21067;-74
2022/07/17 01:57:42;;;;;;;10.00;2.97;;;15.90;65.50;;;;;;2626369;52;21644;-75
2022/07/17 02:00:14;;;;;;;9.77;2.30;;;15.90;65.60;;;;;;2627664;52;21589;-75
2022/07/17 02:02:42;;;;;;;7.43;3.25;;;15.90;65.80;;;;;;2373354;56;22230;-74
2022/07/17 02:05:09;;;;;;;6.15;2.50;;;15.90;65.70;;;;;;2372804;56;21055;-76
2022/07/17 02:07:39;;;;;;;9.13;2.47;;;15.90;65.80;;;;;;2626567;52;21159;-75
2022/07/17 02:10:09;;;;;;;6.68;2.40;;;15.90;66.00;;;;;;2625752;52;21047;-75
2022/07/17 02:12:37;;;;;;;5.87;2.15;;;15.90;66.20;;;;;;2625652;52;21569;-75
2022/07/17 02:15:06;;;;;;;9.80;2.83;;;15.90;66.20;;;;;;2372089;56;21700;-73
2022/07/17 02:17:34;;;;;;;7.10;2.85;;;15.90;66.20;;;;;;2372162;56;21619;-75
2022/07/17 02:20:01;;;;;;;8.23;2.45;;;15.90;66.20;;;;;;2371216;56;21063;-75
2022/07/17 02:22:29;;;;;;;9.55;2.42;;;15.90;66.30;;;;;;2372119;56;21106;-73
2022/07/17 02:24:56;;;;;;;9.35;2.37;;;15.90;66.30;;;;;;2372933;56;21031;-73
2022/07/17 02:27:24;;;;;;;4.47;2.22;;;15.90;66.30;;;;;;2624755;52;21043;-74
2022/07/17 02:29:51;;;;;;;8.32;2.17;;;15.90;66.20;;;;;;2372327;56;21063;-73
2022/07/17 02:32:19;;;;;;;2.70;2.00;;;15.90;66.10;;;;;;2373009;56;21105;-74
2022/07/17 02:34:46;;;;;;;5.22;1.87;;;15.90;65.80;;;;;;2371261;56;21047;-74
2022/07/17 02:37:13;;;;;;;5.37;2.00;;;15.90;65.80;;;;;;2371428;56;21116;-72
2022/07/17 02:39:52;;;;;;;9.77;2.50;;;15.90;65.80;;;;;;2372132;56;21062;-75
2022/07/17 02:42:21;;;;;;;5.07;2.10;;;15.90;65.80;;;;;;2372612;56;21058;-75
2022/07/17 02:44:49;;;;;;;8.57;2.30;;;15.90;65.70;;;;;;2625288;52;21205;-75
2022/07/17 02:47:22;;;;;;;7.53;2.37;;;15.90;65.70;;;;;;2371872;56;21118;-76
2022/07/17 02:49:50;;;;;;;8.25;2.12;;;15.90;65.90;;;;;;2372616;56;21051;-74
2022/07/17 02:52:17;;;;;;;4.82;1.92;;;15.90;65.90;;;;;;2372816;56;21051;-73
2022/07/17 02:54:44;;;;;;;6.50;2.80;;;15.90;65.90;;;;;;2372214;56;21490;-76
2022/07/17 02:57:12;;;;;;;6.20;2.42;;;15.90;65.80;;;;;;2371724;56;21055;-75
2022/07/17 02:59:40;;;;;;;6.50;2.72;;;15.90;65.70;;;;;;2372832;56;21051;-75
2022/07/17 03:02:08;;;;;;;5.70;2.47;;;15.90;65.60;;;;;;2625337;52;21031;-74
2022/07/17 03:04:35;;;;;;;6.05;2.30;;;16.00;65.70;;;;;;2372067;56;21095;-74
2022/07/17 03:07:02;;;;;;;8.57;2.33;;;16.00;65.50;;;;;;2371442;56;21118;-74
2022/07/17 03:09:30;;;;;;;10.75;2.42;;;16.00;65.50;;;;;;2372575;56;21031;-76
2022/07/17 03:11:57;;;;;;;6.87;2.42;;;15.90;65.60;;;;;;2372070;56;21127;-75
2022/07/17 03:14:24;;;;;;;8.23;2.50;;;16.00;65.80;;;;;;2372214;56;21113;-73
2022/07/17 03:16:52;;;;;;;7.60;2.78;;;15.90;65.70;;;;;;2372351;56;21075;-75
2022/07/17 03:19:19;;;;;;;6.90;2.58;;;15.90;65.80;;;;;;2371650;56;21086;-75
2022/07/17 03:21:47;;;;;;;7.87;2.37;;;15.90;66.00;;;;;;2372512;56;21043;-75
2022/07/17 03:24:14;;;;;;;5.75;2.50;;;15.90;66.10;;;;;;2372310;56;21035;-75
2022/07/17 03:26:41;;;;;;;4.97;2.30;;;15.90;66.00;;;;;;2372100;56;21122;-74
2022/07/17 03:29:09;;;;;;;7.00;2.22;;;15.90;66.20;;;;;;2372974;56;21043;-75
2022/07/17 03:31:36;;;;;;;7.90;2.87;;;15.90;66.10;;;;;;2372590;56;21122;-75
2022/07/17 03:34:03;;;;;;;5.28;2.25;;;15.90;66.00;;;;;;2372119;56;21113;-72
2022/07/17 03:36:31;;;;;;;9.98;2.40;;;16.00;66.20;;;;;;2372051;56;21070;-76
2022/07/17 03:38:58;;;;;;;5.75;2.67;;;16.00;66.20;;;;;;2372481;56;21047;-72
2022/07/17 03:41:26;;;;;;;6.15;2.42;;;16.00;66.10;;;;;;2625049;52;21043;-75
2022/07/17 03:43:54;;;;;;;9.35;2.55;;;16.00;66.10;;;;;;2373195;56;21110;-74
2022/07/17 03:46:21;;;;;;;9.07;2.70;;;16.00;65.90;;;;;;2371728;56;21126;-75
2022/07/17 03:48:49;;;;;;;6.35;2.20;;;16.10;65.90;;;;;;2372104;56;21051;-73
2022/07/17 03:51:17;;;;;;;6.97;2.30;;;16.10;65.80;;;;;;2372200;56;21150;-73
2022/07/17 03:53:44;;;;;;;8.02;2.50;;;16.10;65.90;;;;;;2625955;52;21103;-76
2022/07/17 03:56:12;;;;;;;8.75;2.20;;;16.20;65.80;;;;;;2371180;56;21541;-75
2022/07/17 03:58:39;;;;;;;4.47;2.08;;;16.20;65.80;;;;;;2372608;56;21633;-74
2022/07/17 04:01:07;;;;;;;5.82;2.10;;;16.20;65.70;;;;;;2372553;56;21126;-76
2022/07/17 04:03:34;;;;;;;7.68;2.03;;;16.20;65.60;;;;;;2372407;56;21046;-75
2022/07/17 04:06:02;;;;;;;6.43;2.30;;;16.30;65.50;;;;;;2370699;56;21573;-73
2022/07/17 04:08:30;;;;;;;7.22;2.58;;;16.30;65.40;;;;;;2371738;56;21026;-74
2022/07/17 04:10:57;;;;;;;5.15;2.25;;;16.30;65.20;;;;;;2371258;56;21106;-71
2022/07/17 04:13:25;;;;;;;10.30;2.40;;;16.30;65.30;;;;;;2370660;56;21601;-74
2022/07/17 04:15:52;;;;;;;5.68;2.37;;;16.30;65.40;;;;;;2624557;52;21058;-73
2022/07/17 04:18:20;;;;;;;6.55;2.50;;;16.30;65.40;;;;;;2371279;56;21067;-76
2022/07/17 04:20:48;;;;;;;6.10;1.83;;;16.40;65.30;;;;;;2372292;56;21605;-75
2022/07/17 04:23:16;;;;;;;9.23;2.97;;;16.40;64.80;;;;;;2372525;56;21095;-74
2022/07/17 04:25:44;;;;;;;8.50;2.30;;;16.40;64.90;;;;;;2625284;52;21027;-75
2022/07/17 04:28:12;;;;;;;9.57;2.12;;;16.40;64.70;;;;;;2371858;56;21063;-73
2022/07/17 04:30:40;;;;;;;4.85;2.03;;;16.50;65.00;;;;;;2372630;56;21071;-73
2022/07/17 04:33:08;;;;;;;6.03;1.98;;;16.50;64.80;;;;;;2371670;56;21577;-74
2022/07/17 04:35:36;;;;;;;8.40;2.15;;;16.50;64.90;;;;;;2371728;56;21027;-75
2022/07/17 04:38:06;;;;;;;5.53;2.28;;;16.50;64.80;;;;;;2625096;52;21106;-76
2022/07/17 04:40:34;;;;;;;6.45;2.40;;;16.50;64.70;;;;;;2625779;52;21110;-75
2022/07/17 04:43:01;;;;;;;6.30;2.28;;;16.60;64.60;;;;;;2377580;54;21031;-76
2022/07/17 04:45:29;;;;;;;4.85;1.90;;;16.60;64.60;;;;;;2301749;58;21082;-77
2022/07/17 04:47:57;;;;;;;6.97;1.75;;;16.60;64.50;;;;;;2301800;58;21138;-76
2022/07/17 04:50:25;;;;;;;5.03;1.75;;;16.60;64.50;;;;;;2301059;58;21714;-76
2022/07/17 04:52:52;;;;;;;3.72;2.00;;;16.70;64.60;;;;;;2300823;58;21114;-76
2022/07/17 04:55:20;;;;;;;6.20;2.37;;;16.70;64.60;;;;;;2300633;58;21720;-76
2022/07/17 04:57:48;;;;;;;5.03;1.85;;;16.70;64.40;;;;;;2300538;58;21079;-76
2022/07/17 05:00:16;;;;;;;6.70;2.12;;;16.80;64.30;;;;;;2299017;58;21561;-76
2022/07/17 05:02:44;;;;;;;4.90;1.90;;;16.80;63.90;;;;;;2299966;58;21153;-76
2022/07/17 05:05:11;;;;;;;7.12;2.03;;;16.80;64.90;;;;;;2299681;58;21054;-76
2022/07/17 05:07:39;;;;;;;4.60;1.90;;;16.80;64.20;;;;;;2299737;58;21635;-76
2022/07/17 05:10:08;;;;;;;5.70;2.00;;;16.90;64.10;;;;;;2300280;58;21062;-76
2022/07/17 05:12:36;;;;;;;4.55;1.70;;;16.90;64.30;;;;;;2300620;58;21146;-76
2022/07/17 05:15:05;;;;;;;7.28;1.98;;;17.00;64.20;;;;;;2300442;58;21086;-76
2022/07/17 05:17:32;;;;;;;6.10;2.10;;;17.00;64.00;;;;;;2299646;58;21142;-76
2022/07/17 05:19:59;;;;;;;5.30;1.80;;;17.00;63.60;;;;;;2301145;58;21087;-76
2022/07/17 05:22:27;;;;;;;5.15;2.12;;;17.10;63.50;;;;;;2300457;58;21059;-77
2022/07/17 05:24:54;;;;;;;6.80;1.80;;;17.10;63.50;;;;;;2301428;58;21062;-77
2022/07/17 05:27:29;;;;;;;6.03;2.10;;;17.10;63.30;;;;;;2300377;58;21197;-77
2022/07/17 05:29:56;;;;;;;6.25;2.05;;;17.10;62.90;;;;;;2299465;58;21046;-76
2022/07/17 05:32:23;;;;;;;6.35;2.10;;;17.20;63.20;;;;;;2300842;58;21565;-77
2022/07/17 05:34:51;;;;;;;3.03;1.48;;;17.20;63.60;;;;;;2300744;58;22465;-76
2022/07/17 05:37:18;;;;;;;6.87;1.75;;;17.20;64.50;;;;;;2299798;58;21556;-76
2022/07/17 05:39:45;;;;;;;5.25;1.90;;;17.30;63.50;;;;;;2301146;58;21122;-76
2022/07/17 05:42:13;;;;;;;9.65;2.35;;;17.20;63.40;;;;;;2300984;58;21118;-76
2022/07/17 05:44:40;;;;;;;7.47;1.80;;;17.30;63.80;;;;;;2300899;58;21142;-76
2022/07/17 05:47:07;;;;;;;4.93;1.80;;;17.30;63.80;;;;;;2298858;58;21134;-77
2022/07/17 05:49:35;;;;;;;5.35;2.00;;;17.30;63.80;;;;;;2537777;54;21676;-77
2022/07/17 05:52:02;;;;;;;9.70;3.25;;;17.30;64.40;;;;;;2301479;58;21178;-76
2022/07/17 05:54:29;;;;;;;4.47;1.65;;;17.40;63.30;;;;;;2301680;58;21114;-76
2022/07/17 05:56:57;;;;;;;6.95;1.75;;;17.40;63.30;;;;;;2299910;58;21126;-77
2022/07/17 05:59:24;;;;;;;5.70;1.73;;;17.50;63.00;;;;;;2301584;58;21121;-76
2022/07/17 06:01:52;;;;;;;8.95;1.83;;;17.60;63.00;;;;;;2300488;58;21066;-76
2022/07/17 06:07:41;;;;;;;5.28;1.35;;;17.60;63.00;;;;;;2499968;54;20967;-77
2022/07/17 06:10:10;;;;;;;5.22;1.80;;;17.90;62.40;;;;;;2301033;58;21054;-76
2022/07/17 06:12:37;;;;;;;5.45;1.55;;;18.00;61.80;;;;;;2301007;58;21046;-76
2022/07/17 06:15:06;;;;;;;4.30;1.73;;;18.00;61.40;;;;;;2537479;54;21565;-76
2022/07/17 06:17:34;;;;;;;3.95;1.50;;;18.00;61.40;;;;;;2300409;58;21086;-76
2022/07/17 06:20:02;;;;;;;4.80;1.70;;;18.00;61.10;;;;;;2300620;58;21102;-76
2022/07/17 06:22:29;;;;;;;3.47;1.90;;;18.00;61.30;;;;;;2300432;58;21066;-77
2022/07/17 06:24:57;;;;;;;6.35;1.92;;;18.00;61.20;;;;;;2300726;58;21066;-76
2022/07/17 06:27:24;;;;;;;6.68;2.40;;;18.10;61.00;;;;;;2300114;58;21086;-76
2022/07/17 06:29:52;;;;;;;8.65;2.05;;;18.10;60.90;;;;;;2300321;58;21533;-76
2022/07/17 06:32:19;;;;;;;5.90;1.60;;;18.10;60.40;;;;;;2300590;58;21565;-76
2022/07/17 06:34:46;;;;;;;4.30;1.65;;;18.10;60.40;;;;;;2300868;58;21110;-76
2022/07/17 06:37:14;;;;;;;5.87;1.83;;;18.10;60.80;;;;;;2300567;58;21071;-77
2022/07/17 06:39:41;;;;;;;3.15;1.33;;;18.10;60.90;;;;;;2300162;58;22342;-76
2022/07/17 06:42:10;;;;;;;3.58;1.80;;;18.20;60.90;;;;;;2301245;58;21051;-76
2022/07/17 06:44:37;;;;;;;5.90;1.52;;;18.20;60.80;;;;;;2300677;58;21118;-76
2022/07/17 06:47:05;;;;;;;6.87;1.70;;;18.20;61.00;;;;;;2537202;54;21051;-76
2022/07/17 06:49:32;;;;;;;12.20;2.22;;;18.20;60.90;;;;;;2301016;58;21122;-76
2022/07/17 06:51:59;;;;;;;6.40;1.60;;;18.20;60.60;;;;;;2301418;58;21047;-76
2022/07/17 06:54:27;;;;;;;3.20;1.55;;;18.30;60.50;;;;;;2301231;58;21341;-76
2022/07/17 06:56:55;;;;;;;6.50;1.55;;;18.40;60.30;;;;;;2536982;54;21075;-76
2022/07/17 06:59:22;;;;;;;4.95;1.52;;;18.40;60.60;;;;;;2301426;58;21058;-76
2022/07/17 07:01:49;;;;;;;6.57;2.12;;;18.40;60.60;;;;;;2300505;58;21055;-76
2022/07/17 07:04:17;;;;;;;6.12;1.90;;;18.50;60.30;;;;;;2300711;58;21212;-76
2022/07/17 07:06:44;;;;;;;4.10;1.58;;;18.50;59.40;;;;;;2300676;58;21105;-77
2022/07/17 07:09:11;;;;;;;6.43;1.70;;;18.50;59.10;;;;;;2299571;58;21070;-76
2022/07/17 07:11:39;;;;;;;6.47;1.50;;;18.50;59.10;;;;;;2301342;58;21133;-77
2022/07/17 07:14:06;;;;;;;5.18;1.65;;;18.50;59.00;;;;;;2300392;58;21556;-76
2022/07/17 07:16:34;;;;;;;4.07;1.77;;;18.50;58.90;;;;;;2536457;54;21142;-77
2022/07/17 07:19:02;;;;;;;5.10;1.48;;;18.50;59.10;;;;;;2299912;58;21050;-76
2022/07/17 07:21:29;;;;;;;4.62;1.67;;;18.50;59.30;;;;;;2298164;58;21057;-76
2022/07/17 07:23:57;;;;;;;3.28;1.40;;;18.50;59.30;;;;;;2299886;58;21123;-78
2022/07/17 07:26:25;;;;;;;3.67;1.45;;;18.50;59.30;;;;;;2299682;58;21086;-76
2022/07/17 07:28:52;;;;;;;6.95;2.22;;;18.50;59.20;;;;;;2300325;58;21129;-75
2022/07/17 07:31:19;;;;;;;9.15;2.45;;;18.50;59.40;;;;;;2300753;58;21134;-76
2022/07/17 07:33:47;;;;;;;2.30;1.45;;;18.60;59.70;;;;;;2300555;58;22247;-76
2022/07/17 07:36:14;;;;;;;5.35;2.15;;;18.60;59.60;;;;;;2300074;58;21110;-76
2022/07/17 07:38:42;;;;;;;3.33;1.27;;;18.70;59.60;;;;;;2300875;58;21098;-76
2022/07/17 07:41:09;;;;;;;5.65;1.70;;;18.70;59.30;;;;;;2300710;58;21094;-76
2022/07/17 07:43:37;;;;;;;4.62;1.62;;;18.80;59.10;;;;;;2300655;58;21055;-76
2022/07/17 07:46:04;;;;;;;4.12;1.35;;;18.90;59.20;;;;;;2298925;58;21050;-76
2022/07/17 07:48:32;;;;;;;9.27;1.70;;;19.00;59.10;;;;;;2300489;58;21066;-76
2022/07/17 07:50:59;;;;;;;1.83;1.40;;;19.00;58.80;;;;;;2299812;58;21066;-77
2022/07/17 07:53:27;;;;;;;6.15;1.70;;;19.10;58.80;;;;;;2301243;58;21114;-77
2022/07/17 07:55:54;;;;;;;6.80;1.77;;;19.10;58.30;;;;;;2536593;54;21070;-77
2022/07/17 07:58:22;;;;;;;3.72;1.80;;;19.10;58.70;;;;;;2300646;58;21042;-77
2022/07/17 08:00:49;;;;;;;6.15;2.10;;;19.20;58.60;;;;;;2300825;58;21047;-76
2022/07/17 08:03:17;;;;;;;4.97;1.62;;;19.20;58.40;;;;;;2298617;58;21091;-76
2022/07/17 08:05:44;;;;;;;5.95;1.77;;;19.20;57.80;;;;;;2299255;58;21130;-77
2022/07/17 08:08:12;;;;;;;6.40;1.50;;;19.20;58.50;;;;;;2298679;58;21561;-77
2022/07/17 08:10:39;;;;;;;5.70;1.95;;;19.20;57.90;;;;;;2299684;58;21563;-77
2022/07/17 08:13:07;;;;;;;6.05;1.50;;;19.20;57.40;;;;;;2299850;58;21118;-77
2022/07/17 08:15:34;;;;;;;5.40;2.10;;;19.20;57.40;;;;;;2298732;58;21082;-77
2022/07/17 08:18:01;;;;;;;4.60;1.33;;;19.20;57.80;;;;;;2536670;54;21102;-77
2022/07/17 08:20:29;;;;;;;10.98;1.62;;;19.20;57.70;;;;;;2535492;54;21181;-76
2022/07/17 08:22:56;;;;;;;9.32;2.15;;;19.30;57.30;;;;;;2299854;58;21118;-76
2022/07/17 08:25:24;;;;;;;7.15;1.52;;;19.20;56.60;;;;;;2299466;58;21047;-77
2022/07/17 08:27:51;;;;;;;4.50;2.00;;;19.20;57.00;;;;;;2299411;58;21687;-77
2022/07/17 08:32:56;;;;;;;4.72;1.85;;;19.20;57.00;;;;;;2535314;53;22572;-77
2022/07/17 08:35:24;;;;;;;4.40;1.50;;;19.30;56.60;;;;;;2315918;58;21103;-77
2022/07/17 08:37:52;;;;;;;5.85;1.90;;;19.30;56.40;;;;;;2316733;58;21516;-77
2022/07/17 08:40:22;;;;;;;4.32;1.50;;;19.30;56.70;;;;;;2323301;57;21063;-77
2022/07/17 08:42:50;;;;;;;4.68;1.58;;;19.30;57.10;;;;;;2343462;57;21129;-77
2022/07/17 08:45:18;;;;;;;6.47;1.75;;;19.20;56.20;;;;;;2338085;57;21205;-77
2022/07/17 08:47:46;;;;;;;5.75;1.70;;;19.20;56.30;;;;;;2344450;57;21555;-77
2022/07/17 08:50:13;;;;;;;3.05;1.30;;;19.30;56.60;;;;;;2343851;57;21103;-77
2022/07/17 08:52:42;;;;;;;6.10;1.73;;;19.30;56.80;;;;;;2337862;57;21063;-77
2022/07/17 08:55:12;;;;;;;4.53;1.70;;;19.40;56.80;;;;;;2323956;57;21145;-77
2022/07/17 08:57:41;;;;;;;6.12;1.75;;;19.40;55.70;;;;;;2345270;57;21144;-77
2022/07/17 09:00:12;;;;;;;2.35;1.20;;;19.50;55.30;;;;;;2344080;57;21114;-76
2022/07/17 09:02:40;;;;;;;4.55;1.67;;;19.50;54.50;;;;;;2344541;57;21126;-77
2022/07/17 09:05:09;;;;;;;4.22;1.65;;;19.60;54.90;;;;;;2343791;57;21059;-77
2022/07/17 09:07:47;;;;;;;2.42;1.23;;;19.70;55.00;;;;;;2343997;57;21561;-76
2022/07/17 09:10:14;;;;;;;5.35;1.95;;;19.70;55.40;;;;;;2343766;57;21047;-77
2022/07/17 09:12:42;;;;;;;7.18;1.95;;;19.80;55.10;;;;;;2344725;57;21075;-78
2022/07/17 09:15:19;;;;;;;5.00;1.67;;;19.70;54.70;;;;;;2343388;57;21305;-77
2022/07/17 09:17:51;;;;;;;5.87;1.50;;;19.70;54.90;;;;;;2343977;57;21039;-78
2022/07/17 09:20:19;;;;;;;5.68;1.67;;;19.70;55.00;;;;;;2344224;57;21134;-77
2022/07/17 09:22:56;;;;;;;4.40;1.60;;;19.80;55.10;;;;;;2344075;57;21561;-76
2022/07/17 09:25:36;;;;;;;8.75;1.95;;;19.80;55.80;;;;;;2343003;57;21052;-78
2022/07/17 09:28:05;;;;;;;5.72;1.60;;;19.80;54.60;;;;;;2344202;57;21094;-77
2022/07/17 09:30:34;;;;;;;6.75;1.50;;;19.90;54.90;;;;;;2344108;57;21135;-77
2022/07/17 09:33:02;;;;;;;5.43;1.50;;;19.90;54.80;;;;;;2343537;57;21047;-79
2022/07/17 09:35:29;;;;;;;5.78;2.35;;;20.00;54.80;;;;;;2342644;57;21090;-77
2022/07/17 09:37:57;;;;;;;3.00;1.33;;;20.00;54.80;;;;;;2592528;53;21139;-77
2022/07/17 09:43:10;;;;;;;4.60;1.95;;;20.20;55.00;;;;;;2343003;57;21054;-80
2022/07/17 09:45:37;;;;;;;3.45;1.20;;;20.20;54.10;;;;;;2339425;57;21051;-77
2022/07/17 09:48:07;;;;;;;6.55;2.00;;;20.20;53.30;;;;;;2342314;57;21562;-77
2022/07/17 09:50:35;;;;;;;7.72;1.40;;;20.20;52.60;;;;;;2343088;57;21157;-77
2022/07/17 09:53:04;;;;;;;4.72;1.50;;;20.30;52.60;;;;;;2342616;57;21565;-76
2022/07/17 09:55:32;;;;;;;4.20;1.27;;;20.30;52.40;;;;;;2342884;57;21549;-75
2022/07/17 09:58:02;;;;;;;4.45;1.20;;;20.40;52.50;;;;;;2343630;57;21071;-76
2022/07/17 10:00:30;;;;;;;4.87;1.37;;;20.50;52.90;;;;;;2342654;57;21546;-76
2022/07/17 10:02:58;;;;;;;6.07;1.77;;;20.50;52.50;;;;;;2590096;53;21541;-77
2022/07/17 10:05:26;;;;;;;2.75;1.37;;;20.50;52.30;;;;;;2589795;53;21075;-76
2022/07/17 10:07:54;;;;;;;3.83;1.40;;;20.50;52.30;;;;;;2344449;57;21102;-77
2022/07/17 10:10:21;;;;;;;4.50;1.23;;;20.50;52.50;;;;;;2342140;57;21632;-77
2022/07/17 10:12:51;;;;;;;6.22;1.87;;;20.60;52.20;;;;;;2342008;57;21071;-78
2022/07/17 10:15:23;;;;;;;6.53;1.67;;;20.60;52.30;;;;;;2588162;53;21154;-77
2022/07/17 10:17:51;;;;;;;4.75;1.40;;;20.60;52.30;;;;;;2341549;57;21103;-78
2022/07/17 10:20:26;;;;;;;5.35;1.55;;;20.60;52.30;;;;;;2588425;53;21091;-78
2022/07/17 10:22:53;;;;;;;7.25;1.85;;;20.60;52.40;;;;;;2343974;57;21051;-78
2022/07/17 10:25:21;;;;;;;7.35;1.90;;;20.60;51.80;;;;;;2589306;53;21051;-78
2022/07/17 10:27:50;;;;;;;4.37;1.60;;;20.60;52.30;;;;;;2344179;57;21059;-79
2022/07/17 10:30:24;;;;;;;5.15;1.37;;;20.60;51.40;;;;;;2343451;57;21060;-76
2022/07/17 10:35:45;;;;;;;5.35;1.50;;;20.60;51.80;;;;;;2534754;54;22115;-77
2022/07/17 10:38:15;;;;;;;2.25;1.23;;;20.70;52.70;;;;;;2290708;58;21063;-77
2022/07/17 10:40:43;;;;;;;4.37;1.30;;;20.70;52.10;;;;;;2286654;58;21537;-77
2022/07/17 10:43:41;;;;;;;4.53;1.48;;;20.80;51.40;;;;;;2316883;58;21477;-78
2022/07/17 10:46:08;;;;;;;8.07;2.33;;;20.90;51.30;;;;;;2237412;60;21101;-76
2022/07/17 10:48:39;;;;;;;5.93;1.37;;;20.90;50.30;;;;;;2465665;55;21077;-75
2022/07/17 10:51:07;;;;;;;3.28;1.23;;;20.90;50.30;;;;;;2239640;60;21249;-77
2022/07/17 10:53:36;;;;;;;4.00;1.20;;;21.00;50.50;;;;;;2464282;56;21662;-76
2022/07/17 10:56:05;;;;;;;6.45;1.60;;;21.00;50.80;;;;;;2238136;60;21105;-76
2022/07/17 10:58:34;;;;;;;4.68;1.33;;;21.10;51.00;;;;;;2240790;60;21130;-75
2022/07/17 11:01:09;;;;;;;5.60;2.45;;;21.10;51.40;;;;;;2239999;60;21205;-76
2022/07/17 11:03:43;;;;;;;4.78;1.33;;;21.20;51.00;;;;;;2241338;60;21070;-74
2022/07/17 11:06:14;;;;;;;6.62;1.62;;;21.30;51.10;;;;;;2239957;60;21177;-79
2022/07/17 11:08:47;;;;;;;3.53;1.30;;;21.40;50.90;;;;;;2239444;60;21098;-75
2022/07/17 11:11:16;;;;;;;5.80;2.37;;;21.50;50.30;;;;;;2464660;55;21062;-75
2022/07/17 11:13:44;;;;;;;4.55;1.50;;;21.60;49.80;;;;;;2464355;56;21186;-75
2022/07/17 11:16:12;;;;;;;4.00;1.55;;;21.70;50.30;;;;;;2240793;60;21368;-79
2022/07/17 11:18:47;;;;;;;2.72;1.23;;;21.80;49.30;;;;;;2242417;60;21077;-79
2022/07/17 11:21:15;;;;;;;4.20;1.12;;;22.00;48.70;;;;;;2466708;55;21302;-80
2022/07/17 11:23:52;;;;;;;4.53;1.70;;;22.00;49.10;;;;;;2240557;60;21122;-77
2022/07/17 11:26:20;;;;;;;5.37;1.40;;;22.20;48.60;;;;;;2239241;60;21054;-77
2022/07/17 11:28:49;;;;;;;6.10;1.45;;;22.30;48.60;;;;;;2240011;60;21062;-77
2022/07/17 11:31:20;;;;;;;3.75;1.08;;;22.40;48.90;;;;;;2241088;60;21568;-78
2022/07/17 11:36:30;;;;;;;4.20;1.30;;;22.60;48.30;;;;;;2354741;57;22081;-76
2022/07/17 11:38:59;;;;;;;4.70;1.27;;;22.90;46.50;;;;;;2344600;57;21033;-76
2022/07/17 11:41:35;;;;;;;3.40;1.00;;;22.90;45.90;;;;;;2618151;52;21023;-76
2022/07/17 11:44:03;;;;;;;3.00;1.30;;;23.00;46.10;;;;;;2371781;56;21046;-76
2022/07/17 11:46:33;;;;;;;3.80;1.30;;;23.20;46.60;;;;;;2372262;56;21086;-75
2022/07/17 11:49:01;;;;;;;3.45;1.55;;;23.30;46.10;;;;;;2373044;56;21114;-76
2022/07/17 11:54:16;;;;;;;1.87;1.10;;;23.50;45.30;;;;;;2354488;57;22062;-75
2022/07/17 11:56:51;;;;;;;3.53;1.30;;;23.70;45.40;;;;;;2344679;57;21129;-75
2022/07/17 11:59:26;;;;;;;5.37;1.27;;;23.80;45.60;;;;;;2345938;57;21528;-76
2022/07/17 12:01:53;;;;;;;2.87;1.25;;;24.00;46.10;;;;;;2371889;56;21102;-75
2022/07/17 12:04:21;;;;;;;4.35;1.33;;;24.00;45.80;;;;;;2373298;56;21114;-75
2022/07/17 12:07:00;;;;;;;4.15;1.40;;;24.20;45.50;;;;;;2626247;52;21206;-75
2022/07/17 12:09:29;;;;;;;3.30;1.15;;;24.20;44.60;;;;;;2626434;52;21050;-75
2022/07/17 12:11:56;;;;;;;3.87;1.23;;;24.30;43.70;;;;;;2373085;56;22173;-76
2022/07/17 12:14:24;;;;;;;3.40;1.10;;;24.30;44.00;;;;;;2373139;56;21545;-75
2022/07/17 12:16:51;;;;;;;2.08;1.15;;;24.40;43.40;;;;;;2372545;56;21553;-73
2022/07/17 12:19:23;;;;;;;3.87;1.10;;;24.40;43.00;;;;;;2627105;52;21131;-76
2022/07/17 12:21:54;;;;;;;7.07;1.50;;;24.50;43.00;;;;;;2372006;56;21047;-75
2022/07/17 12:24:25;;;;;;;4.28;1.25;;;24.50;43.00;;;;;;2374175;56;21541;-75
2022/07/17 12:26:53;;;;;;;4.65;1.20;;;24.60;42.30;;;;;;2372982;56;21039;-74
2022/07/17 12:29:20;;;;;;;4.93;1.83;;;24.70;42.40;;;;;;2373506;56;21158;-75
2022/07/17 12:31:48;;;;;;;4.25;1.30;;;24.70;42.80;;;;;;2373840;56;21070;-74
2022/07/17 12:34:15;;;;;;;4.87;1.10;;;24.80;43.10;;;;;;2627458;52;21087;-76
2022/07/17 12:36:43;;;;;;;2.78;1.08;;;24.90;43.30;;;;;;2372215;56;21031;-76
2022/07/17 12:39:10;;;;;;;3.87;1.30;;;24.90;42.80;;;;;;2373289;56;21067;-76
2022/07/17 12:41:38;;;;;;;1.83;1.00;;;25.00;42.10;;;;;;2626973;52;21118;-76
2022/07/17 12:46:42;;;;;;;1.45;0.95;;;25.10;42.10;;;;;;2354073;57;22053;-76
2022/07/17 12:49:09;;;;;;;3.35;1.10;;;25.10;41.90;;;;;;2346626;57;21069;-74
2022/07/17 12:51:36;;;;;;;3.33;1.40;;;25.00;41.60;;;;;;2367912;56;21047;-76
2022/07/17 12:54:04;;;;;;;5.55;1.20;;;25.10;42.10;;;;;;2627691;52;21537;-76
2022/07/17 12:56:31;;;;;;;3.05;1.10;;;25.00;41.60;;;;;;2373354;56;21055;-76
2022/07/17 12:58:59;;;;;;;3.65;1.10;;;25.00;41.80;;;;;;2374082;56;21085;-77
2022/07/17 13:01:27;;;;;;;2.97;1.20;;;25.00;42.40;;;;;;2372262;56;21125;-76
2022/07/17 13:03:54;;;;;;;5.03;1.42;;;25.00;42.50;;;;;;2373702;56;21047;-76
2022/07/17 13:06:21;;;;;;;5.22;1.10;;;25.10;42.90;;;;;;2626499;52;21063;-76
2022/07/17 13:08:49;;;;;;;3.78;1.30;;;25.10;42.50;;;;;;2374052;56;21106;-75
2022/07/17 13:11:16;;;;;;;2.80;1.27;;;25.30;43.10;;;;;;2373332;56;21038;-74
2022/07/17 13:13:44;;;;;;;2.30;0.90;;;25.30;42.90;;;;;;2373749;56;21023;-75